sensor_id;sensor_type;location;lat;lon;timestamp;P1;durP1;ratioP1;P2;durP2;ratioP2
40815;SDS011;26535;48.788;9.214;2023-04-02T08:17:36;2.70;;;0.68;;
40815;SDS011;26535;48.788;9.214;2023-04-02T08:20:02;2.90;;;0.80;;
40815;SDS011;26535;48.788;9.214;2023-04-02T08:22:32;2.22;;;0.75;;
40815;SDS011;26535;48.788;9.214;2023-04-02T08:24:58;2.20;;;0.70;;
40815;SDS011;26535;48.788;9.214;2023-04-02T08:27:24;2.85;;;0.60;;
40815;SDS011;26535;48.788;9.214;2023-04-02T08:29:49;2.65;;;0.70;;
40815;SDS011;26535;48.788;9.214;2023-04-02T08:32:15;2.33;;;0.65;;
40815;SDS011;26535;48.788;9.214;2023-04-02T08:34:41;1.55;;;0.60;;
40815;SDS011;26535;48.788;9.214;2023-04-02T08:37:11;1.00;;;0.38;;
40815;SDS011;26535;48.788;9.214;2023-04-02T08:39:37;2.15;;;0.70;;
40815;SDS011;26535;48.788;9.214;2023-04-02T08:42:06;1.38;;;0.60;;
40815;SDS011;26535;48.788;9.214;2023-04-02T08:47:39;1.77;;;0.50;;
40815;SDS011;26535;48.788;9.214;2023-04-02T08:52:55;3.53;;;0.50;;
40815;SDS011;26535;48.788;9.214;2023-04-02T08:58:07;2.72;;;0.73;;
40815;SDS011;26535;48.788;9.214;2023-04-02T09:00:57;3.53;;;1.38;;
40815;SDS011;26535;48.788;9.214;2023-04-02T09:03:39;2.25;;;0.90;;
40815;SDS011;26535;48.788;9.214;2023-04-02T09:06:09;2.58;;;0.65;;
40815;SDS011;26535;48.788;9.214;2023-04-02T09:08:39;1.45;;;0.40;;
40815;SDS011;26535;48.788;9.214;2023-04-02T09:13:39;1.33;;;0.30;;
40815;SDS011;26535;48.788;9.214;2023-04-02T09:16:11;2.25;;;0.88;;
40815;SDS011;26535;48.788;9.214;2023-04-02T09:18:42;0.85;;;0.40;;
40815;SDS011;26535;48.788;9.214;2023-04-02T09:21:28;1.70;;;0.40;;
40815;SDS011;26535;48.788;9.214;2023-04-02T09:24:01;1.25;;;0.45;;
40815;SDS011;26535;48.788;9.214;2023-04-02T09:26:30;1.67;;;0.47;;
40815;SDS011;26535;48.788;9.214;2023-04-02T09:31:36;3.10;;;0.47;;
40815;SDS011;26535;48.788;9.214;2023-04-02T09:36:54;1.85;;;0.45;;
40815;SDS011;26535;48.788;9.214;2023-04-02T09:39:24;1.50;;;0.70;;
40815;SDS011;26535;48.788;9.214;2023-04-02T09:41:50;1.83;;;0.40;;
40815;SDS011;26535;48.788;9.214;2023-04-02T09:44:25;1.58;;;0.35;;
40815;SDS011;26535;48.788;9.214;2023-04-02T09:46:55;1.05;;;0.20;;
40815;SDS011;26535;48.788;9.214;2023-04-02T09:49:33;2.45;;;0.55;;
40815;SDS011;26535;48.788;9.214;2023-04-02T09:52:07;3.95;;;1.92;;
40815;SDS011;26535;48.788;9.214;2023-04-02T09:54:41;1.48;;;0.60;;
40815;SDS011;26535;48.788;9.214;2023-04-02T09:57:18;1.88;;;0.52;;
40815;SDS011;26535;48.788;9.214;2023-04-02T10:02:38;1.65;;;0.50;;
40815;SDS011;26535;48.788;9.214;2023-04-02T10:05:04;2.53;;;0.40;;
40815;SDS011;26535;48.788;9.214;2023-04-02T10:07:40;2.72;;;0.40;;
40815;SDS011;26535;48.788;9.214;2023-04-02T10:10:20;1.02;;;0.30;;
40815;SDS011;26535;48.788;9.214;2023-04-02T10:13:03;0.93;;;0.47;;
40815;SDS011;26535;48.788;9.214;2023-04-02T10:18:42;1.42;;;0.40;;
40815;SDS011;26535;48.788;9.214;2023-04-02T10:21:14;1.52;;;0.50;;
40815;SDS011;26535;48.788;9.214;2023-04-02T10:23:43;1.52;;;0.40;;
40815;SDS011;26535;48.788;9.214;2023-04-02T10:28:49;1.95;;;0.30;;
40815;SDS011;26535;48.788;9.214;2023-04-02T10:31:57;1.83;;;0.43;;
40815;SDS011;26535;48.788;9.214;2023-04-02T10:34:36;1.73;;;0.50;;
40815;SDS011;26535;48.788;9.214;2023-04-02T10:42:38;1.13;;;0.40;;
40815;SDS011;26535;48.788;9.214;2023-04-02T10:54:09;1.83;;;0.50;;
40815;SDS011;26535;48.788;9.214;2023-04-02T10:56:56;1.27;;;0.57;;
40815;SDS011;26535;48.788;9.214;2023-04-02T10:59:29;0.70;;;0.30;;
40815;SDS011;26535;48.788;9.214;2023-04-02T11:01:58;2.38;;;0.82;;
40815;SDS011;26535;48.788;9.214;2023-04-02T11:04:32;1.15;;;0.50;;
40815;SDS011;26535;48.788;9.214;2023-04-02T11:07:06;1.25;;;0.40;;
40815;SDS011;26535;48.788;9.214;2023-04-02T11:09:38;1.17;;;0.30;;
40815;SDS011;26535;48.788;9.214;2023-04-02T11:12:07;1.27;;;0.35;;
40815;SDS011;26535;48.788;9.214;2023-04-02T11:14:45;0.95;;;0.30;;
40815;SDS011;26535;48.788;9.214;2023-04-02T11:17:12;1.33;;;0.30;;
40815;SDS011;26535;48.788;9.214;2023-04-02T11:19:40;0.90;;;0.20;;
40815;SDS011;26535;48.788;9.214;2023-04-02T11:22:16;1.35;;;0.25;;
40815;SDS011;26535;48.788;9.214;2023-04-02T11:24:54;0.65;;;0.15;;
40815;SDS011;26535;48.788;9.214;2023-04-02T11:27:33;1.27;;;0.20;;
40815;SDS011;26535;48.788;9.214;2023-04-02T11:30:06;0.63;;;0.20;;
40815;SDS011;26535;48.788;9.214;2023-04-02T11:32:41;1.02;;;0.10;;
40815;SDS011;26535;48.788;9.214;2023-04-02T11:38:46;0.47;;;0.10;;
40815;SDS011;26535;48.788;9.214;2023-04-02T11:40:46;1.13;;;0.20;;
40815;SDS011;26535;48.788;9.214;2023-04-02T11:45:57;0.73;;;0.30;;
40815;SDS011;26535;48.788;9.214;2023-04-02T11:48:25;2.10;;;0.20;;
40815;SDS011;26535;48.788;9.214;2023-04-02T11:50:53;1.20;;;0.20;;
40815;SDS011;26535;48.788;9.214;2023-04-02T12:09:56;0.90;;;0.20;;
40815;SDS011;26535;48.788;9.214;2023-04-02T12:12:30;0.68;;;0.10;;
40815;SDS011;26535;48.788;9.214;2023-04-02T12:15:00;0.65;;;0.13;;
40815;SDS011;26535;48.788;9.214;2023-04-02T12:19:54;0.65;;;0.20;;
40815;SDS011;26535;48.788;9.214;2023-04-02T12:22:29;1.42;;;0.43;;
40815;SDS011;26535;48.788;9.214;2023-04-02T12:25:00;1.10;;;0.30;;
40815;SDS011;26535;48.788;9.214;2023-04-02T12:27:45;0.90;;;0.30;;
40815;SDS011;26535;48.788;9.214;2023-04-02T12:32:38;1.10;;;0.20;;
40815;SDS011;26535;48.788;9.214;2023-04-02T12:35:04;1.05;;;0.20;;
40815;SDS011;26535;48.788;9.214;2023-04-02T12:37:32;0.80;;;0.20;;
40815;SDS011;26535;48.788;9.214;2023-04-02T12:40:02;0.63;;;0.20;;
40815;SDS011;26535;48.788;9.214;2023-04-02T12:42:39;0.57;;;0.20;;
40815;SDS011;26535;48.788;9.214;2023-04-02T12:45:06;0.63;;;0.20;;
40815;SDS011;26535;48.788;9.214;2023-04-02T12:47:45;0.65;;;0.20;;
40815;SDS011;26535;48.788;9.214;2023-04-02T12:50:12;1.17;;;0.10;;
40815;SDS011;26535;48.788;9.214;2023-04-02T12:52:42;0.70;;;0.20;;
40815;SDS011;26535;48.788;9.214;2023-04-02T12:55:14;0.70;;;0.20;;
40815;SDS011;26535;48.788;9.214;2023-04-02T12:57:43;0.50;;;0.13;;
40815;SDS011;26535;48.788;9.214;2023-04-02T13:02:49;0.73;;;0.20;;
40815;SDS011;26535;48.788;9.214;2023-04-02T13:08:21;1.52;;;0.50;;
40815;SDS011;26535;48.788;9.214;2023-04-02T13:10:55;1.17;;;0.40;;
40815;SDS011;26535;48.788;9.214;2023-04-02T13:13:24;1.67;;;0.70;;
40815;SDS011;26535;48.788;9.214;2023-04-02T13:16:20;1.38;;;0.60;;
40815;SDS011;26535;48.788;9.214;2023-04-02T13:18:50;1.65;;;0.57;;
40815;SDS011;26535;48.788;9.214;2023-04-02T13:21:32;1.60;;;0.40;;
40815;SDS011;26535;48.788;9.214;2023-04-02T13:23:58;0.80;;;0.40;;
40815;SDS011;26535;48.788;9.214;2023-04-02T13:26:24;1.23;;;0.50;;
40815;SDS011;26535;48.788;9.214;2023-04-02T13:31:22;2.00;;;0.80;;
40815;SDS011;26535;48.788;9.214;2023-04-02T13:33:48;1.50;;;0.60;;
40815;SDS011;26535;48.788;9.214;2023-04-02T13:36:14;2.28;;;0.70;;
40815;SDS011;26535;48.788;9.214;2023-04-02T13:38:40;1.13;;;0.50;;
40815;SDS011;26535;48.788;9.214;2023-04-02T13:41:19;1.40;;;0.80;;
40815;SDS011;26535;48.788;9.214;2023-04-02T13:43:51;2.58;;;0.90;;
40815;SDS011;26535;48.788;9.214;2023-04-02T13:46:19;1.55;;;0.93;;
40815;SDS011;26535;48.788;9.214;2023-04-02T13:48:47;2.63;;;1.40;;
40815;SDS011;26535;48.788;9.214;2023-04-02T13:51:16;2.37;;;1.00;;
40815;SDS011;26535;48.788;9.214;2023-04-02T13:53:44;1.67;;;0.77;;
40815;SDS011;26535;48.788;9.214;2023-04-02T13:56:13;3.00;;;0.80;;
40815;SDS011;26535;48.788;9.214;2023-04-02T13:58:39;1.52;;;0.85;;
40815;SDS011;26535;48.788;9.214;2023-04-02T14:01:05;1.58;;;0.80;;
40815;SDS011;26535;48.788;9.214;2023-04-02T14:03:31;2.03;;;0.90;;
40815;SDS011;26535;48.788;9.214;2023-04-02T14:08:50;1.60;;;0.82;;
40815;SDS011;26535;48.788;9.214;2023-04-02T14:19:40;3.28;;;1.20;;
40815;SDS011;26535;48.788;9.214;2023-04-02T14:22:39;2.30;;;1.08;;
40815;SDS011;26535;48.788;9.214;2023-04-02T14:39:02;1.83;;;0.77;;
40815;SDS011;26535;48.788;9.214;2023-04-02T14:41:59;1.58;;;0.80;;
40815;SDS011;26535;48.788;9.214;2023-04-02T14:44:32;1.80;;;1.17;;
40815;SDS011;26535;48.788;9.214;2023-04-02T14:47:23;2.28;;;0.88;;
40815;SDS011;26535;48.788;9.214;2023-04-02T14:49:56;2.35;;;1.00;;
40815;SDS011;26535;48.788;9.214;2023-04-02T14:52:27;1.80;;;0.80;;
40815;SDS011;26535;48.788;9.214;2023-04-02T14:54:58;1.52;;;0.75;;
40815;SDS011;26535;48.788;9.214;2023-04-02T14:57:30;1.02;;;0.50;;
40815;SDS011;26535;48.788;9.214;2023-04-02T15:00:06;1.42;;;0.82;;
40815;SDS011;26535;48.788;9.214;2023-04-02T15:02:53;1.40;;;0.90;;
40815;SDS011;26535;48.788;9.214;2023-04-02T15:13:20;1.33;;;0.80;;
40815;SDS011;26535;48.788;9.214;2023-04-02T15:15:52;2.20;;;0.70;;
40815;SDS011;26535;48.788;9.214;2023-04-02T15:18:20;2.17;;;0.55;;
40815;SDS011;26535;48.788;9.214;2023-04-02T15:20:50;1.67;;;0.80;;
40815;SDS011;26535;48.788;9.214;2023-04-02T15:40:45;3.10;;;1.15;;
40815;SDS011;26535;48.788;9.214;2023-04-02T15:43:20;2.70;;;1.10;;
40815;SDS011;26535;48.788;9.214;2023-04-02T15:46:04;2.55;;;1.10;;
40815;SDS011;26535;48.788;9.214;2023-04-02T15:54:07;1.92;;;0.80;;
40815;SDS011;26535;48.788;9.214;2023-04-02T16:05:44;1.88;;;0.93;;
40815;SDS011;26535;48.788;9.214;2023-04-02T16:10:49;1.20;;;0.70;;
40815;SDS011;26535;48.788;9.214;2023-04-02T16:13:31;1.80;;;1.02;;
40815;SDS011;26535;48.788;9.214;2023-04-02T16:21:32;2.70;;;1.23;;
40815;SDS011;26535;48.788;9.214;2023-04-02T16:24:05;3.35;;;1.67;;
40815;SDS011;26535;48.788;9.214;2023-04-02T16:26:47;3.17;;;1.30;;
40815;SDS011;26535;48.788;9.214;2023-04-02T16:41:14;1.73;;;1.00;;
40815;SDS011;26535;48.788;9.214;2023-04-02T16:43:59;1.70;;;1.00;;
40815;SDS011;26535;48.788;9.214;2023-04-02T16:49:43;1.88;;;0.98;;
40815;SDS011;26535;48.788;9.214;2023-04-02T16:55:03;2.75;;;1.10;;
40815;SDS011;26535;48.788;9.214;2023-04-02T17:00:53;1.80;;;1.30;;
40815;SDS011;26535;48.788;9.214;2023-04-02T17:06:39;1.58;;;0.90;;
40815;SDS011;26535;48.788;9.214;2023-04-02T17:09:12;2.20;;;1.20;;
40815;SDS011;26535;48.788;9.214;2023-04-02T17:11:40;2.08;;;1.40;;
40815;SDS011;26535;48.788;9.214;2023-04-02T17:14:17;2.08;;;1.08;;
40815;SDS011;26535;48.788;9.214;2023-04-02T17:16:53;2.15;;;1.20;;
40815;SDS011;26535;48.788;9.214;2023-04-02T17:19:23;3.40;;;1.50;;
40815;SDS011;26535;48.788;9.214;2023-04-02T17:21:51;4.88;;;1.40;;
40815;SDS011;26535;48.788;9.214;2023-04-02T17:24:25;4.53;;;1.70;;
40815;SDS011;26535;48.788;9.214;2023-04-02T17:27:21;5.47;;;1.70;;
40815;SDS011;26535;48.788;9.214;2023-04-02T17:29:51;4.47;;;1.85;;
40815;SDS011;26535;48.788;9.214;2023-04-02T17:32:26;6.93;;;2.08;;
40815;SDS011;26535;48.788;9.214;2023-04-02T17:34:54;4.55;;;1.75;;
40815;SDS011;26535;48.788;9.214;2023-04-02T17:40:02;4.00;;;1.20;;
40815;SDS011;26535;48.788;9.214;2023-04-02T17:42:53;1.95;;;1.20;;
40815;SDS011;26535;48.788;9.214;2023-04-02T18:05:04;2.85;;;1.95;;
40815;SDS011;26535;48.788;9.214;2023-04-02T18:13:22;2.80;;;1.80;;
40815;SDS011;26535;48.788;9.214;2023-04-02T18:34:56;4.23;;;2.50;;
40815;SDS011;26535;48.788;9.214;2023-04-02T18:40:41;5.43;;;2.72;;
40815;SDS011;26535;48.788;9.214;2023-04-02T18:48:49;5.45;;;2.65;;
40815;SDS011;26535;48.788;9.214;2023-04-02T18:51:24;5.32;;;2.60;;
40815;SDS011;26535;48.788;9.214;2023-04-02T18:56:35;4.28;;;2.83;;
40815;SDS011;26535;48.788;9.214;2023-04-02T19:01:57;5.00;;;3.30;;
40815;SDS011;26535;48.788;9.214;2023-04-02T19:04:31;4.57;;;2.92;;
40815;SDS011;26535;48.788;9.214;2023-04-02T19:07:13;3.95;;;2.80;;
40815;SDS011;26535;48.788;9.214;2023-04-02T19:09:42;4.50;;;3.00;;
40815;SDS011;26535;48.788;9.214;2023-04-02T19:12:21;3.58;;;2.47;;
40815;SDS011;26535;48.788;9.214;2023-04-02T19:14:48;5.50;;;2.90;;
40815;SDS011;26535;48.788;9.214;2023-04-02T19:17:21;4.20;;;2.78;;
40815;SDS011;26535;48.788;9.214;2023-04-02T19:25:28;3.47;;;2.00;;
40815;SDS011;26535;48.788;9.214;2023-04-02T19:30:55;5.03;;;2.10;;
40815;SDS011;26535;48.788;9.214;2023-04-02T19:36:21;5.63;;;2.50;;
40815;SDS011;26535;48.788;9.214;2023-04-02T19:44:37;4.32;;;2.08;;
40815;SDS011;26535;48.788;9.214;2023-04-02T19:47:12;4.82;;;2.38;;
40815;SDS011;26535;48.788;9.214;2023-04-02T19:49:47;3.63;;;2.17;;
40815;SDS011;26535;48.788;9.214;2023-04-02T19:52:13;3.45;;;2.15;;
40815;SDS011;26535;48.788;9.214;2023-04-02T19:54:39;4.70;;;2.15;;
40815;SDS011;26535;48.788;9.214;2023-04-02T19:57:05;5.28;;;2.13;;
40815;SDS011;26535;48.788;9.214;2023-04-02T19:59:31;4.43;;;2.30;;
40815;SDS011;26535;48.788;9.214;2023-04-02T20:02:00;3.92;;;2.33;;
40815;SDS011;26535;48.788;9.214;2023-04-02T20:04:33;4.80;;;2.45;;
40815;SDS011;26535;48.788;9.214;2023-04-02T20:07:04;6.38;;;2.58;;
40815;SDS011;26535;48.788;9.214;2023-04-02T20:09:30;3.20;;;2.15;;
40815;SDS011;26535;48.788;9.214;2023-04-02T20:11:56;5.47;;;2.53;;
40815;SDS011;26535;48.788;9.214;2023-04-02T20:14:24;5.97;;;2.75;;
40815;SDS011;26535;48.788;9.214;2023-04-02T20:16:53;4.22;;;2.10;;
40815;SDS011;26535;48.788;9.214;2023-04-02T20:19:19;4.68;;;2.35;;
40815;SDS011;26535;48.788;9.214;2023-04-02T20:21:51;4.72;;;2.20;;
40815;SDS011;26535;48.788;9.214;2023-04-02T20:24:17;5.75;;;2.55;;
40815;SDS011;26535;48.788;9.214;2023-04-02T20:26:43;3.55;;;1.92;;
40815;SDS011;26535;48.788;9.214;2023-04-02T20:29:09;4.38;;;2.38;;
40815;SDS011;26535;48.788;9.214;2023-04-02T20:31:38;4.38;;;2.03;;
40815;SDS011;26535;48.788;9.214;2023-04-02T20:34:03;4.55;;;2.13;;
40815;SDS011;26535;48.788;9.214;2023-04-02T20:36:30;3.85;;;2.30;;
40815;SDS011;26535;48.788;9.214;2023-04-02T20:38:59;4.88;;;2.20;;
40815;SDS011;26535;48.788;9.214;2023-04-02T20:41:26;4.78;;;1.92;;
40815;SDS011;26535;48.788;9.214;2023-04-02T20:44:01;5.38;;;1.92;;
40815;SDS011;26535;48.788;9.214;2023-04-02T20:46:27;4.25;;;2.13;;
40815;SDS011;26535;48.788;9.214;2023-04-02T20:48:53;3.08;;;1.77;;
40815;SDS011;26535;48.788;9.214;2023-04-02T20:51:19;4.30;;;2.05;;
40815;SDS011;26535;48.788;9.214;2023-04-02T20:53:45;3.60;;;1.88;;
40815;SDS011;26535;48.788;9.214;2023-04-02T20:56:12;6.25;;;1.85;;
40815;SDS011;26535;48.788;9.214;2023-04-02T20:58:40;3.90;;;1.92;;
40815;SDS011;26535;48.788;9.214;2023-04-02T21:03:43;3.55;;;1.92;;
40815;SDS011;26535;48.788;9.214;2023-04-02T21:06:13;3.90;;;2.00;;
40815;SDS011;26535;48.788;9.214;2023-04-02T21:08:40;6.47;;;2.13;;
40815;SDS011;26535;48.788;9.214;2023-04-02T21:11:07;4.03;;;2.00;;
40815;SDS011;26535;48.788;9.214;2023-04-02T21:13:33;4.53;;;1.92;;
40815;SDS011;26535;48.788;9.214;2023-04-02T21:16:04;2.75;;;1.75;;
40815;SDS011;26535;48.788;9.214;2023-04-02T21:18:36;4.18;;;2.42;;
40815;SDS011;26535;48.788;9.214;2023-04-02T21:21:02;4.65;;;2.15;;
40815;SDS011;26535;48.788;9.214;2023-04-02T21:23:30;3.47;;;1.90;;
40815;SDS011;26535;48.788;9.214;2023-04-02T21:26:01;3.95;;;2.17;;
40815;SDS011;26535;48.788;9.214;2023-04-02T21:28:30;4.68;;;2.17;;
40815;SDS011;26535;48.788;9.214;2023-04-02T21:31:39;4.78;;;2.00;;
40815;SDS011;26535;48.788;9.214;2023-04-02T21:33:49;4.18;;;2.05;;
40815;SDS011;26535;48.788;9.214;2023-04-02T21:36:21;5.95;;;2.00;;
40815;SDS011;26535;48.788;9.214;2023-04-02T21:38:55;3.47;;;1.85;;
40815;SDS011;26535;48.788;9.214;2023-04-02T21:41:36;2.95;;;1.80;;
40815;SDS011;26535;48.788;9.214;2023-04-02T21:44:06;3.70;;;2.22;;
40815;SDS011;26535;48.788;9.214;2023-04-02T21:46:39;3.30;;;1.83;;
40815;SDS011;26535;48.788;9.214;2023-04-02T21:49:11;4.47;;;2.33;;
40815;SDS011;26535;48.788;9.214;2023-04-02T21:51:41;2.90;;;1.90;;
40815;SDS011;26535;48.788;9.214;2023-04-02T21:54:08;3.88;;;2.05;;
40815;SDS011;26535;48.788;9.214;2023-04-02T21:56:35;3.92;;;2.28;;
40815;SDS011;26535;48.788;9.214;2023-04-02T21:59:02;4.75;;;2.25;;
40815;SDS011;26535;48.788;9.214;2023-04-02T22:01:31;3.90;;;2.28;;
40815;SDS011;26535;48.788;9.214;2023-04-02T22:03:59;3.20;;;1.95;;
40815;SDS011;26535;48.788;9.214;2023-04-02T22:06:28;3.30;;;1.92;;
40815;SDS011;26535;48.788;9.214;2023-04-02T22:11:26;3.22;;;1.88;;
40815;SDS011;26535;48.788;9.214;2023-04-02T22:13:54;4.20;;;1.88;;
40815;SDS011;26535;48.788;9.214;2023-04-02T22:16:23;5.57;;;2.47;;
40815;SDS011;26535;48.788;9.214;2023-04-02T22:18:50;5.70;;;2.03;;
40815;SDS011;26535;48.788;9.214;2023-04-02T22:21:18;4.83;;;2.13;;
40815;SDS011;26535;48.788;9.214;2023-04-02T22:23:44;3.80;;;2.20;;
40815;SDS011;26535;48.788;9.214;2023-04-02T22:26:11;5.40;;;1.90;;
40815;SDS011;26535;48.788;9.214;2023-04-02T22:28:37;3.22;;;1.98;;
40815;SDS011;26535;48.788;9.214;2023-04-02T22:33:31;4.60;;;1.97;;
40815;SDS011;26535;48.788;9.214;2023-04-02T22:35:58;4.88;;;2.28;;
40815;SDS011;26535;48.788;9.214;2023-04-02T22:38:24;5.63;;;2.13;;
40815;SDS011;26535;48.788;9.214;2023-04-02T22:40:50;4.50;;;2.10;;
40815;SDS011;26535;48.788;9.214;2023-04-02T22:43:16;3.58;;;2.20;;
40815;SDS011;26535;48.788;9.214;2023-04-02T22:45:48;4.13;;;2.20;;
40815;SDS011;26535;48.788;9.214;2023-04-02T22:48:13;4.30;;;2.05;;
40815;SDS011;26535;48.788;9.214;2023-04-02T22:50:39;4.03;;;2.03;;
40815;SDS011;26535;48.788;9.214;2023-04-02T22:53:05;3.80;;;2.10;;
40815;SDS011;26535;48.788;9.214;2023-04-02T22:55:31;5.13;;;2.40;;
40815;SDS011;26535;48.788;9.214;2023-04-02T22:57:57;3.58;;;2.13;;
40815;SDS011;26535;48.788;9.214;2023-04-02T23:00:22;3.95;;;2.10;;
40815;SDS011;26535;48.788;9.214;2023-04-02T23:02:49;4.07;;;2.13;;
40815;SDS011;26535;48.788;9.214;2023-04-02T23:05:14;6.05;;;2.25;;
40815;SDS011;26535;48.788;9.214;2023-04-02T23:07:40;4.82;;;2.22;;
40815;SDS011;26535;48.788;9.214;2023-04-02T23:10:06;4.32;;;2.28;;
40815;SDS011;26535;48.788;9.214;2023-04-02T23:12:32;3.63;;;1.90;;
40815;SDS011;26535;48.788;9.214;2023-04-02T23:14:57;3.15;;;2.17;;
40815;SDS011;26535;48.788;9.214;2023-04-02T23:17:24;3.60;;;1.70;;
40815;SDS011;26535;48.788;9.214;2023-04-02T23:19:51;4.53;;;2.10;;
40815;SDS011;26535;48.788;9.214;2023-04-02T23:22:16;6.05;;;2.22;;
40815;SDS011;26535;48.788;9.214;2023-04-02T23:24:42;4.80;;;1.90;;
40815;SDS011;26535;48.788;9.214;2023-04-02T23:27:08;3.17;;;1.90;;
40815;SDS011;26535;48.788;9.214;2023-04-02T23:29:34;3.40;;;2.35;;
40815;SDS011;26535;48.788;9.214;2023-04-02T23:31:59;3.60;;;2.20;;
40815;SDS011;26535;48.788;9.214;2023-04-02T23:34:26;4.65;;;2.55;;
40815;SDS011;26535;48.788;9.214;2023-04-02T23:36:51;4.55;;;1.92;;
40815;SDS011;26535;48.788;9.214;2023-04-02T23:39:17;4.00;;;2.28;;
40815;SDS011;26535;48.788;9.214;2023-04-02T23:41:44;4.07;;;2.40;;
40815;SDS011;26535;48.788;9.214;2023-04-02T23:44:12;4.55;;;2.50;;
40815;SDS011;26535;48.788;9.214;2023-04-02T23:46:38;5.75;;;2.33;;
40815;SDS011;26535;48.788;9.214;2023-04-02T23:49:05;5.63;;;2.70;;
40815;SDS011;26535;48.788;9.214;2023-04-02T23:51:32;5.35;;;2.00;;
40815;SDS011;26535;48.788;9.214;2023-04-02T23:53:58;3.70;;;2.10;;
40815;SDS011;26535;48.788;9.214;2023-04-02T23:56:24;4.63;;;2.00;;
40815;SDS011;26535;48.788;9.214;2023-04-02T23:58:50;6.95;;;2.38;;
